Time;durP1;ratioP1;P1;durP2;ratioP2;P2;SDS_P1;SDS_P2;PMS_P1;PMS_P2;Temp;Humidity;BMP_temperature;BMP_pressure;BME280_temperature;BME280_humidity;BME280_pressure;Samples;Min_cycle;Max_cycle;Signal;HPM_P1;HPM_P2
2023/05/24 00:01:56;;;;;;;10.55;7.80;;;;;;;;;;4961849;28;20026;-75
2023/05/24 00:04:23;;;;;;;8.80;8.05;;;;;;;;;;4957354;28;20445;-76
2023/05/24 00:06:49;;;;;;;8.40;7.60;;;;;;;;;;4970671;28;20046;-76
2023/05/24 00:09:15;;;;;;;10.43;9.25;;;;;;;;;;4973092;28;20038;-75
2023/05/24 00:11:40;;;;;;;10.27;9.18;;;;;;;;;;4973431;28;20061;-76
2023/05/24 00:14:05;;;;;;;11.90;10.05;;;;;;;;;;4960043;28;20027;-76
2023/05/24 00:16:31;;;;;;;13.05;10.68;;;;;;;;;;4975946;28;20037;-75
2023/05/24 00:18:57;;;;;;;11.73;8.93;;;;;;;;;;4966869;28;20027;-77
2023/05/24 00:21:23;;;;;;;8.32;7.50;;;;;;;;;;4970402;28;20107;-75
2023/05/24 00:23:50;;;;;;;8.60;7.63;;;;;;;;;;4975029;28;20117;-77
2023/05/24 00:26:16;;;;;;;9.65;8.75;;;;;;;;;;4974507;28;20440;-77
2023/05/24 00:28:41;;;;;;;9.52;8.52;;;;;;;;;;4973811;28;20027;-76
2023/05/24 00:31:09;;;;;;;8.63;7.75;;;;;;;;;;4967579;28;20030;-75
2023/05/24 00:33:34;;;;;;;11.93;8.55;;;;;;;;;;4959118;28;20034;-75
2023/05/24 00:36:00;;;;;;;8.77;7.80;;;;;;;;;;4973521;28;20037;-76
2023/05/24 00:38:25;;;;;;;9.15;8.20;;;;;;;;;;4976337;28;20092;-74
2023/05/24 00:40:51;;;;;;;10.00;8.00;;;;;;;;;;4967222;28;20417;-76
2023/05/24 00:43:17;;;;;;;8.68;7.78;;;;;;;;;;4968170;28;20050;-75
2023/05/24 00:45:43;;;;;;;9.77;7.85;;;;;;;;;;4971962;28;20351;-75
2023/05/24 00:48:08;;;;;;;12.80;7.00;;;;;;;;;;4963598;28;20054;-74
2023/05/24 00:50:34;;;;;;;8.35;6.53;;;;;;;;;;4974816;28;20026;-74
2023/05/24 00:53:02;;;;;;;7.95;6.35;;;;;;;;;;4973875;28;20083;-74
2023/05/24 00:55:28;;;;;;;7.93;6.60;;;;;;;;;;4972890;28;20027;-74
2023/05/24 00:57:55;;;;;;;7.53;6.47;;;;;;;;;;4973544;28;20022;-74
2023/05/24 01:00:22;;;;;;;7.22;6.53;;;;;;;;;;4974481;28;20027;-75
2023/05/24 01:02:48;;;;;;;9.95;7.60;;;;;;;;;;4971312;28;20018;-76
2023/05/24 01:05:16;;;;;;;8.35;7.47;;;;;;;;;;4971321;28;20042;-75
2023/05/24 01:07:41;;;;;;;7.85;7.15;;;;;;;;;;4966098;28;20026;-74
2023/05/24 01:10:15;;;;;;;8.45;7.22;;;;;;;;;;4971719;28;20045;-74
2023/05/24 01:12:59;;;;;;;7.32;6.63;;;;;;;;;;4971463;28;20030;-75
2023/05/24 01:15:28;;;;;;;7.07;5.97;;;;;;;;;;4958284;28;20041;-75
2023/05/24 01:18:00;;;;;;;7.75;6.63;;;;;;;;;;4970179;28;20040;-74
2023/05/24 01:20:29;;;;;;;8.57;6.43;;;;;;;;;;4961699;28;20027;-75
2023/05/24 01:23:04;;;;;;;9.77;7.78;;;;;;;;;;4971016;28;20030;-74
2023/05/24 01:25:36;;;;;;;18.40;12.18;;;;;;;;;;4975232;28;20044;-75
2023/05/24 01:28:03;;;;;;;15.93;11.00;;;;;;;;;;4972426;28;20023;-75
2023/05/24 01:30:28;;;;;;;12.45;10.57;;;;;;;;;;4963870;28;20061;-75
2023/05/24 01:32:54;;;;;;;12.70;9.30;;;;;;;;;;4974225;28;20065;-75
2023/05/24 01:35:19;;;;;;;9.52;7.65;;;;;;;;;;4973347;28;20045;-75
2023/05/24 01:37:44;;;;;;;13.75;9.52;;;;;;;;;;4974403;28;20034;-74
2023/05/24 01:40:10;;;;;;;10.63;8.05;;;;;;;;;;4976720;28;20453;-75
2023/05/24 01:42:51;;;;;;;8.98;8.07;;;;;;;;;;4974815;28;20171;-76
2023/05/24 01:45:32;;;;;;;7.78;6.97;;;;;;;;;;4974338;28;20030;-75
2023/05/24 01:48:17;;;;;;;9.32;6.97;;;;;;;;;;4974654;28;20038;-74
2023/05/24 01:51:12;;;;;;;7.15;6.47;;;;;;;;;;4965631;28;20030;-74
2023/05/24 01:53:40;;;;;;;8.00;7.20;;;;;;;;;;5054499;28;20070;-74
2023/05/24 01:56:06;;;;;;;6.72;6.13;;;;;;;;;;5075876;28;20020;-74
2023/05/24 01:58:32;;;;;;;8.68;6.57;;;;;;;;;;5070050;28;20830;-75
2023/05/24 02:00:58;;;;;;;8.05;6.75;;;;;;;;;;5066124;28;20051;-76
2023/05/24 02:03:23;;;;;;;9.95;7.07;;;;;;;;;;5066627;28;20062;-75
2023/05/24 02:05:49;;;;;;;9.27;7.32;;;;;;;;;;5075338;28;20432;-76
2023/05/24 02:08:14;;;;;;;7.47;6.10;;;;;;;;;;5071762;28;20581;-76
2023/05/24 02:10:40;;;;;;;7.00;6.40;;;;;;;;;;5074285;28;20039;-78
2023/05/24 02:13:06;;;;;;;7.03;6.35;;;;;;;;;;5063995;28;20524;-76
2023/05/24 02:15:31;;;;;;;7.85;6.40;;;;;;;;;;5075451;28;20029;-77
2023/05/24 02:17:57;;;;;;;7.20;6.50;;;;;;;;;;5073861;28;20355;-76
2023/05/24 02:20:22;;;;;;;7.75;5.97;;;;;;;;;;5073124;28;20359;-75
2023/05/24 02:22:48;;;;;;;8.40;6.43;;;;;;;;;;5074927;28;20035;-76
2023/05/24 02:25:13;;;;;;;9.05;6.82;;;;;;;;;;5075646;28;20438;-75
2023/05/24 02:27:40;;;;;;;7.03;6.32;;;;;;;;;;5074226;28;20078;-76
2023/05/24 02:30:06;;;;;;;7.40;6.68;;;;;;;;;;5021617;28;20031;-74
2023/05/24 02:32:31;;;;;;;7.07;6.38;;;;;;;;;;4977319;28;20409;-75
2023/05/24 02:34:58;;;;;;;8.27;7.18;;;;;;;;;;4963085;28;20025;-75
2023/05/24 02:37:24;;;;;;;7.65;6.85;;;;;;;;;;4977169;28;20088;-74
2023/05/24 02:39:49;;;;;;;7.32;6.63;;;;;;;;;;4970182;28;20122;-74
2023/05/24 02:42:15;;;;;;;6.97;6.38;;;;;;;;;;4967134;28;20613;-75
2023/05/24 02:44:41;;;;;;;10.02;6.88;;;;;;;;;;4973302;28;20034;-74
2023/05/24 02:47:07;;;;;;;8.85;7.95;;;;;;;;;;4964269;28;20026;-75
2023/05/24 02:49:32;;;;;;;11.27;7.68;;;;;;;;;;4991644;28;20449;-74
2023/05/24 02:51:57;;;;;;;10.07;7.22;;;;;;;;;;4976998;28;20085;-74
2023/05/24 02:54:24;;;;;;;7.65;6.88;;;;;;;;;;4973663;28;20539;-77
2023/05/24 02:56:50;;;;;;;7.75;6.95;;;;;;;;;;4964647;28;20054;-77
2023/05/24 02:59:16;;;;;;;8.68;7.03;;;;;;;;;;4975754;28;20460;-76
2023/05/24 03:01:41;;;;;;;7.10;6.47;;;;;;;;;;4974663;28;20041;-74
2023/05/24 03:04:07;;;;;;;15.98;6.40;;;;;;;;;;4974929;28;20019;-75
2023/05/24 03:06:32;;;;;;;8.18;6.20;;;;;;;;;;4975350;28;20054;-74
2023/05/24 03:08:58;;;;;;;7.35;6.35;;;;;;;;;;4975614;28;20034;-77
2023/05/24 03:11:23;;;;;;;7.55;6.75;;;;;;;;;;4970821;28;20026;-75
2023/05/24 03:13:48;;;;;;;6.95;6.10;;;;;;;;;;4964609;28;20034;-77
2023/05/24 03:16:15;;;;;;;7.13;6.28;;;;;;;;;;4972716;28;20412;-75
2023/05/24 03:18:41;;;;;;;6.35;5.70;;;;;;;;;;4963513;28;20362;-74
2023/05/24 03:21:06;;;;;;;6.72;6.13;;;;;;;;;;4966681;28;20041;-76
2023/05/24 03:23:32;;;;;;;6.32;5.72;;;;;;;;;;4975447;28;20353;-75
2023/05/24 03:25:57;;;;;;;9.35;6.25;;;;;;;;;;4973130;28;20031;-75
2023/05/24 03:28:23;;;;;;;6.47;5.88;;;;;;;;;;4973112;28;20426;-78
2023/05/24 03:30:48;;;;;;;6.43;5.32;;;;;;;;;;4972391;28;20033;-74
2023/05/24 03:33:14;;;;;;;6.97;6.05;;;;;;;;;;4975996;28;20026;-75
2023/05/24 03:35:39;;;;;;;10.23;6.18;;;;;;;;;;4975222;28;20510;-75
2023/05/24 03:38:05;;;;;;;6.53;5.90;;;;;;;;;;4972195;28;20026;-75
2023/05/24 03:40:32;;;;;;;6.72;6.05;;;;;;;;;;4957523;28;20430;-75
2023/05/24 03:42:57;;;;;;;7.00;6.40;;;;;;;;;;4972770;28;20039;-75
2023/05/24 03:45:23;;;;;;;8.25;6.85;;;;;;;;;;4974389;28;20026;-76
2023/05/24 03:47:48;;;;;;;7.25;6.55;;;;;;;;;;4978214;28;20035;-76
2023/05/24 03:50:13;;;;;;;7.70;6.78;;;;;;;;;;4973462;28;20038;-76
2023/05/24 03:52:39;;;;;;;6.63;5.93;;;;;;;;;;4974855;28;20481;-75
2023/05/24 03:55:05;;;;;;;6.78;5.90;;;;;;;;;;4976352;28;20049;-75
2023/05/24 03:57:30;;;;;;;9.48;5.97;;;;;;;;;;4974954;28;20354;-76
2023/05/24 03:59:55;;;;;;;7.53;6.13;;;;;;;;;;4975107;28;20069;-75
2023/05/24 04:02:21;;;;;;;7.07;6.20;;;;;;;;;;4947878;28;20026;-75
2023/05/24 04:04:46;;;;;;;7.15;6.45;;;;;;;;;;4953370;28;20027;-75
2023/05/24 04:07:12;;;;;;;9.32;6.45;;;;;;;;;;4945931;28;20018;-74
2023/05/24 04:09:38;;;;;;;7.32;6.30;;;;;;;;;;4947560;28;20058;-75
2023/05/24 04:12:03;;;;;;;8.02;6.85;;;;;;;;;;4948962;28;20149;-74
2023/05/24 04:14:29;;;;;;;7.43;6.70;;;;;;;;;;4953516;28;20035;-75
2023/05/24 04:16:54;;;;;;;11.27;6.80;;;;;;;;;;4952713;28;20058;-74
2023/05/24 04:19:20;;;;;;;9.90;7.20;;;;;;;;;;4964812;28;20022;-75
2023/05/24 04:21:45;;;;;;;9.77;8.88;;;;;;;;;;4973489;28;20026;-76
2023/05/24 04:24:10;;;;;;;10.93;9.20;;;;;;;;;;4974044;28;20030;-76
2023/05/24 04:26:36;;;;;;;11.05;9.10;;;;;;;;;;4962371;28;20027;-76
2023/05/24 04:29:02;;;;;;;9.73;8.82;;;;;;;;;;4969805;28;20092;-76
2023/05/24 04:31:29;;;;;;;9.98;8.18;;;;;;;;;;4971819;28;20050;-73
2023/05/24 04:33:56;;;;;;;8.20;7.38;;;;;;;;;;4973303;28;20030;-74
2023/05/24 04:36:22;;;;;;;8.32;7.45;;;;;;;;;;4973326;28;20022;-73
2023/05/24 04:38:49;;;;;;;8.30;6.90;;;;;;;;;;4971153;28;20031;-75
2023/05/24 04:41:14;;;;;;;8.13;6.25;;;;;;;;;;4958599;28;20031;-76
2023/05/24 04:43:40;;;;;;;8.65;7.45;;;;;;;;;;4958614;28;20476;-75
2023/05/24 04:46:05;;;;;;;48.90;42.30;;;;;;;;;;4958491;28;20039;-75
2023/05/24 04:48:30;;;;;;;25.00;22.38;;;;;;;;;;4959283;28;20046;-76
2023/05/24 04:50:57;;;;;;;11.63;10.48;;;;;;;;;;4965721;28;20361;-77
2023/05/24 04:53:23;;;;;;;9.82;8.30;;;;;;;;;;4970131;28;20039;-77
2023/05/24 04:55:48;;;;;;;10.10;7.50;;;;;;;;;;4973214;28;20379;-76
2023/05/24 04:58:14;;;;;;;10.35;8.00;;;;;;;;;;4963677;28;20031;-77
2023/05/24 05:00:40;;;;;;;8.43;7.72;;;;;;;;;;4971997;28;20410;-76
2023/05/24 05:03:06;;;;;;;8.05;6.70;;;;;;;;;;4971241;28;20027;-80
2023/05/24 05:05:31;;;;;;;8.10;7.40;;;;;;;;;;4963377;28;20034;-78
2023/05/24 05:07:56;;;;;;;8.00;7.20;;;;;;;;;;4974765;28;20033;-78
2023/05/24 05:10:22;;;;;;;8.20;7.35;;;;;;;;;;4974561;28;20130;-77
2023/05/24 05:12:48;;;;;;;8.90;8.00;;;;;;;;;;4974505;28;20430;-76
2023/05/24 05:15:13;;;;;;;9.60;7.55;;;;;;;;;;4976317;28;20035;-77
2023/05/24 05:17:38;;;;;;;9.60;7.43;;;;;;;;;;4975777;28;20026;-77
2023/05/24 05:20:04;;;;;;;7.97;7.18;;;;;;;;;;4975781;28;20438;-76
2023/05/24 05:22:30;;;;;;;9.85;7.40;;;;;;;;;;4974915;28;20063;-77
2023/05/24 05:24:55;;;;;;;8.10;7.20;;;;;;;;;;4975678;28;20034;-78
2023/05/24 05:27:21;;;;;;;9.68;6.28;;;;;;;;;;4975238;28;20334;-75
2023/05/24 05:29:46;;;;;;;6.32;5.82;;;;;;;;;;4976197;28;20030;-75
2023/05/24 05:32:11;;;;;;;7.25;6.65;;;;;;;;;;4977913;28;20035;-75
2023/05/24 05:34:37;;;;;;;7.13;6.35;;;;;;;;;;4972090;28;20062;-77
2023/05/24 05:37:02;;;;;;;10.43;6.68;;;;;;;;;;4967600;28;20026;-75
2023/05/24 05:39:27;;;;;;;7.82;6.60;;;;;;;;;;4968443;28;20053;-74
2023/05/24 05:41:53;;;;;;;6.28;5.72;;;;;;;;;;4968957;28;20050;-73
2023/05/24 05:44:19;;;;;;;7.50;6.07;;;;;;;;;;4973048;28;20018;-71
2023/05/24 05:46:44;;;;;;;6.85;6.13;;;;;;;;;;4974087;28;20023;-72
2023/05/24 05:49:14;;;;;;;7.78;5.95;;;;;;;;;;4973205;28;20069;-72
2023/05/24 05:51:39;;;;;;;;;;;;;;;;;;4975714;28;20026;-72
2023/05/24 05:54:05;;;;;;;7.17;5.43;;;;;;;;;;4973627;28;20379;-71
2023/05/24 05:56:30;;;;;;;9.50;5.68;;;;;;;;;;4967348;28;20018;-74
2023/05/24 05:58:55;;;;;;;6.57;5.93;;;;;;;;;;4971482;28;20438;-76
2023/05/24 06:01:22;;;;;;;7.07;6.38;;;;;;;;;;4974181;28;20038;-74
2023/05/24 06:03:47;;;;;;;5.72;5.15;;;;;;;;;;4974623;28;20850;-73
2023/05/24 06:06:12;;;;;;;9.63;5.90;;;;;;;;;;4977500;28;20068;-73
2023/05/24 06:08:39;;;;;;;8.05;6.15;;;;;;;;;;4974904;28;20030;-74
2023/05/24 06:11:05;;;;;;;6.38;5.30;;;;;;;;;;4967042;28;20361;-75
2023/05/24 06:13:31;;;;;;;8.52;5.65;;;;;;;;;;4957991;28;20035;-74
2023/05/24 06:15:57;;;;;;;5.00;4.57;;;;;;;;;;4959944;28;20022;-74
2023/05/24 06:18:23;;;;;;;7.05;6.20;;;;;;;;;;4958297;28;20023;-73
2023/05/24 06:20:48;;;;;;;6.25;5.60;;;;;;;;;;4973334;28;20041;-73
2023/05/24 06:23:13;;;;;;;6.18;5.57;;;;;;;;;;4975324;28;20026;-75
2023/05/24 06:25:39;;;;;;;11.18;5.90;;;;;;;;;;4973945;28;20045;-74
2023/05/24 06:28:04;;;;;;;5.65;5.15;;;;;;;;;;4977054;28;20083;-74
2023/05/24 06:30:32;;;;;;;9.25;5.82;;;;;;;;;;4973856;28;20031;-74
2023/05/24 06:32:57;;;;;;;7.30;5.35;;;;;;;;;;4959856;28;20096;-77
2023/05/24 06:35:23;;;;;;;6.57;5.97;;;;;;;;;;4959944;28;20034;-73
2023/05/24 06:37:48;;;;;;;9.27;5.32;;;;;;;;;;4977025;28;20019;-74
2023/05/24 06:40:13;;;;;;;6.15;5.40;;;;;;;;;;4975419;28;20034;-75
2023/05/24 06:42:39;;;;;;;5.70;4.75;;;;;;;;;;4974748;28;20057;-75
2023/05/24 06:45:04;;;;;;;8.88;4.82;;;;;;;;;;4975386;28;20450;-76
2023/05/24 06:47:30;;;;;;;7.63;4.75;;;;;;;;;;4962796;28;20050;-78
2023/05/24 06:49:56;;;;;;;6.45;5.03;;;;;;;;;;4959587;28;20069;-76
2023/05/24 06:52:21;;;;;;;7.25;5.40;;;;;;;;;;4959874;28;20026;-75
2023/05/24 06:54:47;;;;;;;5.10;4.60;;;;;;;;;;4961134;28;20034;-75
2023/05/24 06:57:12;;;;;;;5.50;4.80;;;;;;;;;;4959763;28;20075;-75
2023/05/24 06:59:37;;;;;;;4.85;4.43;;;;;;;;;;4961595;28;20022;-76
2023/05/24 07:02:03;;;;;;;6.93;4.88;;;;;;;;;;4959258;28;20484;-76
2023/05/24 07:04:28;;;;;;;5.25;4.78;;;;;;;;;;4959960;28;20091;-76
2023/05/24 07:06:53;;;;;;;7.45;4.85;;;;;;;;;;4960986;28;20026;-76
2023/05/24 07:09:19;;;;;;;5.43;4.88;;;;;;;;;;4960360;28;20022;-76
2023/05/24 07:11:44;;;;;;;5.88;4.82;;;;;;;;;;4959468;28;20106;-75
2023/05/24 07:14:10;;;;;;;4.72;4.32;;;;;;;;;;4960226;28;20045;-75
2023/05/24 07:16:35;;;;;;;9.57;4.40;;;;;;;;;;4960804;28;20030;-75
2023/05/24 07:19:01;;;;;;;6.10;5.50;;;;;;;;;;4957563;28;20030;-76
2023/05/24 07:21:27;;;;;;;6.88;4.65;;;;;;;;;;4960546;28;20034;-76
2023/05/24 07:23:52;;;;;;;5.38;4.57;;;;;;;;;;4960295;28;20033;-77
2023/05/24 07:26:17;;;;;;;6.10;4.60;;;;;;;;;;4959312;28;20030;-76
2023/05/24 07:28:43;;;;;;;4.95;4.55;;;;;;;;;;4959464;28;20065;-76
2023/05/24 07:31:09;;;;;;;10.48;4.70;;;;;;;;;;4960984;28;20473;-76
2023/05/24 07:33:37;;;;;;;5.70;4.78;;;;;;;;;;4962382;28;20038;-76
2023/05/24 07:36:04;;;;;;;7.23;5.37;;;;;;;;;;4961583;28;20122;-76
2023/05/24 07:38:29;;;;;;;5.18;4.65;;;;;;;;;;4961607;28;21140;-75
2023/05/24 07:40:56;;;;;;;6.10;5.05;;;;;;;;;;4959036;28;20641;-75
2023/05/24 07:43:21;;;;;;;5.10;4.60;;;;;;;;;;4973133;28;20199;-74
2023/05/24 07:45:46;;;;;;;7.72;4.22;;;;;;;;;;4962661;28;20022;-75
2023/05/24 07:48:12;;;;;;;5.63;4.50;;;;;;;;;;4960670;28;20031;-76
2023/05/24 07:50:37;;;;;;;6.80;4.80;;;;;;;;;;4958152;28;20088;-76
2023/05/24 07:53:04;;;;;;;6.32;4.40;;;;;;;;;;4958901;28;20058;-78
2023/05/24 07:55:29;;;;;;;5.60;5.00;;;;;;;;;;4957297;28;20497;-76
2023/05/24 07:57:55;;;;;;;6.93;4.45;;;;;;;;;;4960868;28;20026;-77
2023/05/24 08:00:21;;;;;;;6.43;4.60;;;;;;;;;;4958736;28;20057;-75
2023/05/24 08:02:47;;;;;;;5.65;4.07;;;;;;;;;;4960583;28;20429;-74
2023/05/24 08:05:13;;;;;;;6.03;4.10;;;;;;;;;;4960804;28;20054;-76
2023/05/24 08:07:39;;;;;;;7.22;4.00;;;;;;;;;;4959726;28;20126;-76
2023/05/24 08:10:05;;;;;;;4.53;4.03;;;;;;;;;;4958569;28;20037;-76
2023/05/24 08:12:31;;;;;;;6.53;4.38;;;;;;;;;;4960216;28;20484;-77
2023/05/24 08:14:56;;;;;;;6.30;4.40;;;;;;;;;;4962409;28;20048;-76
2023/05/24 08:17:22;;;;;;;5.05;4.18;;;;;;;;;;4960110;28;20027;-76
2023/05/24 08:19:47;;;;;;;4.72;3.83;;;;;;;;;;4960624;28;20018;-77
2023/05/24 08:22:12;;;;;;;6.85;4.20;;;;;;;;;;4959049;28;20436;-77
2023/05/24 08:24:38;;;;;;;4.60;4.18;;;;;;;;;;4971885;28;20031;-77
2023/05/24 08:27:03;;;;;;;4.85;4.00;;;;;;;;;;4958119;28;20617;-76
2023/05/24 08:29:29;;;;;;;6.03;4.47;;;;;;;;;;4960996;28;20030;-76
2023/05/24 08:31:54;;;;;;;4.78;4.05;;;;;;;;;;4958550;28;20081;-76
2023/05/24 08:34:20;;;;;;;7.43;4.18;;;;;;;;;;4959497;28;20041;-76
2023/05/24 08:36:46;;;;;;;5.00;4.50;;;;;;;;;;4964486;28;20038;-76
2023/05/24 08:39:11;;;;;;;5.10;4.60;;;;;;;;;;4965815;28;20349;-76
2023/05/24 08:41:37;;;;;;;5.35;3.42;;;;;;;;;;4961888;28;20026;-76
2023/05/24 08:44:08;;;;;;;3.88;3.47;;;;;;;;;;4967715;28;20026;-77
2023/05/24 08:46:35;;;;;;;4.25;3.85;;;;;;;;;;4963076;28;20030;-78
2023/05/24 08:49:02;;;;;;;6.00;4.30;;;;;;;;;;4961506;28;20058;-75
2023/05/24 08:51:28;;;;;;;4.10;3.70;;;;;;;;;;4965896;28;20453;-77
2023/05/24 08:53:54;;;;;;;5.25;3.50;;;;;;;;;;4978082;28;20026;-77
2023/05/24 08:56:20;;;;;;;5.03;3.80;;;;;;;;;;4978041;28;20101;-76
2023/05/24 08:58:46;;;;;;;6.15;3.53;;;;;;;;;;4975567;28;20151;-76
2023/05/24 09:01:12;;;;;;;8.05;3.70;;;;;;;;;;4976736;28;20026;-76
2023/05/24 09:03:39;;;;;;;3.83;3.50;;;;;;;;;;4974661;28;20046;-76
2023/05/24 09:06:06;;;;;;;4.38;3.95;;;;;;;;;;4976980;28;20049;-77
2023/05/24 09:08:33;;;;;;;6.20;3.63;;;;;;;;;;4975498;28;20092;-77
2023/05/24 09:10:59;;;;;;;5.40;3.70;;;;;;;;;;4976098;28;20091;-76
2023/05/24 09:13:25;;;;;;;4.15;3.63;;;;;;;;;;4976987;28;20030;-77
2023/05/24 09:15:50;;;;;;;4.35;4.00;;;;;;;;;;4972951;28;20502;-76
2023/05/24 09:18:16;;;;;;;3.88;3.40;;;;;;;;;;4963030;28;20042;-76
2023/05/24 09:20:41;;;;;;;3.47;2.97;;;;;;;;;;4960976;28;21747;-74
2023/05/24 09:23:07;;;;;;;3.30;3.05;;;;;;;;;;4962927;28;20037;-76
2023/05/24 09:25:32;;;;;;;5.70;3.63;;;;;;;;;;4959043;28;20061;-75
2023/05/24 09:28:04;;;;;;;3.90;3.50;;;;;;;;;;4965894;28;20446;-78
2023/05/24 09:30:29;;;;;;;5.18;3.53;;;;;;;;;;4963142;28;20377;-75
2023/05/24 09:32:56;;;;;;;6.05;3.45;;;;;;;;;;4963170;28;20037;-77
2023/05/24 09:35:21;;;;;;;3.83;3.08;;;;;;;;;;4962259;28;20030;-76
2023/05/24 09:37:47;;;;;;;4.88;3.88;;;;;;;;;;4960915;28;20048;-75
2023/05/24 09:40:19;;;;;;;3.60;3.10;;;;;;;;;;4963736;28;20034;-77
2023/05/24 09:42:45;;;;;;;4.63;3.10;;;;;;;;;;4962793;28;20079;-76
2023/05/24 09:45:11;;;;;;;3.30;3.10;;;;;;;;;;4961945;28;20052;-75
2023/05/24 09:47:39;;;;;;;4.43;2.92;;;;;;;;;;4959418;28;20057;-75
2023/05/24 09:50:05;;;;;;;3.20;2.85;;;;;;;;;;4961861;28;20096;-78
2023/05/24 09:52:35;;;;;;;4.38;2.80;;;;;;;;;;4961826;28;20066;-78
2023/05/24 09:55:09;;;;;;;3.50;3.05;;;;;;;;;;4961948;28;20058;-77
2023/05/24 09:57:34;;;;;;;5.13;2.85;;;;;;;;;;4963309;28;20045;-75
2023/05/24 10:00:07;;;;;;;5.75;3.20;;;;;;;;;;4961929;28;20034;-76
2023/05/24 10:02:33;;;;;;;3.78;3.15;;;;;;;;;;4962777;28;20027;-76
2023/05/24 10:04:59;;;;;;;3.05;2.83;;;;;;;;;;4959878;28;20026;-75
2023/05/24 10:07:25;;;;;;;3.33;3.03;;;;;;;;;;4960685;28;20030;-76
2023/05/24 10:09:50;;;;;;;5.22;3.55;;;;;;;;;;4961747;28;20108;-76
2023/05/24 10:12:16;;;;;;;4.40;3.00;;;;;;;;;;4961687;28;20030;-74
2023/05/24 10:14:41;;;;;;;4.97;2.90;;;;;;;;;;4961459;28;20088;-75
2023/05/24 10:17:06;;;;;;;4.50;3.22;;;;;;;;;;4963445;28;20446;-74
2023/05/24 10:19:32;;;;;;;4.55;3.40;;;;;;;;;;4961520;28;20032;-75
2023/05/24 10:21:58;;;;;;;2.95;2.67;;;;;;;;;;4961091;28;20334;-76
2023/05/24 10:24:25;;;;;;;3.38;3.08;;;;;;;;;;4959989;28;20031;-77
2023/05/24 10:26:51;;;;;;;4.18;3.22;;;;;;;;;;4961269;28;20030;-76
2023/05/24 10:29:37;;;;;;;6.10;3.20;;;;;;;;;;4966980;28;20770;-75
2023/05/24 10:32:03;;;;;;;3.45;3.15;;;;;;;;;;5072376;28;20061;-75
2023/05/24 10:34:29;;;;;;;5.03;3.03;;;;;;;;;;5075552;28;20036;-75
2023/05/24 10:36:56;;;;;;;3.90;3.00;;;;;;;;;;5073759;28;20119;-74
2023/05/24 10:39:21;;;;;;;5.53;3.78;;;;;;;;;;5073755;28;20024;-76
2023/05/24 10:41:47;;;;;;;3.67;2.90;;;;;;;;;;5074455;28;20039;-77
2023/05/24 10:44:12;;;;;;;3.28;2.97;;;;;;;;;;5072579;28;20028;-77
2023/05/24 10:47:08;;;;;;;4.10;3.05;;;;;;;;;;5058732;28;20066;-74
2023/05/24 10:49:34;;;;;;;4.90;3.22;;;;;;;;;;4974135;28;20132;-74
2023/05/24 10:52:01;;;;;;;3.85;3.20;;;;;;;;;;4972257;28;20357;-75
2023/05/24 10:54:26;;;;;;;4.72;3.10;;;;;;;;;;4972961;28;20052;-74
2023/05/24 10:56:52;;;;;;;7.72;3.72;;;;;;;;;;4987873;28;20045;-74
2023/05/24 10:59:36;;;;;;;5.07;3.20;;;;;;;;;;4988802;28;20096;-75
2023/05/24 11:02:03;;;;;;;6.93;3.50;;;;;;;;;;4977452;28;20061;-75
2023/05/24 11:04:38;;;;;;;3.65;3.20;;;;;;;;;;4981564;28;20030;-75
2023/05/24 11:07:05;;;;;;;4.18;3.15;;;;;;;;;;4988572;28;20077;-73
2023/05/24 11:09:31;;;;;;;3.92;3.20;;;;;;;;;;4944158;28;20036;-75
2023/05/24 11:12:01;;;;;;;8.25;3.35;;;;;;;;;;4907303;28;20040;-77
2023/05/24 11:14:27;;;;;;;3.65;3.30;;;;;;;;;;4929779;28;20044;-74
2023/05/24 11:16:53;;;;;;;3.38;3.08;;;;;;;;;;4904135;28;20392;-76
2023/05/24 11:19:23;;;;;;;4.20;3.80;;;;;;;;;;4904046;28;20040;-75
2023/05/24 11:21:49;;;;;;;4.80;3.50;;;;;;;;;;4910709;28;20050;-76
2023/05/24 11:24:16;;;;;;;5.82;3.03;;;;;;;;;;4904911;28;20063;-75
2023/05/24 11:26:42;;;;;;;4.68;3.88;;;;;;;;;;4960458;28;20129;-76
2023/05/24 11:29:08;;;;;;;5.60;3.60;;;;;;;;;;4976253;28;20841;-76
2023/05/24 11:31:38;;;;;;;6.38;3.70;;;;;;;;;;4975066;28;20035;-75
2023/05/24 11:34:03;;;;;;;5.10;3.30;;;;;;;;;;4975085;28;20153;-76
2023/05/24 11:36:28;;;;;;;3.65;3.08;;;;;;;;;;4971851;28;20133;-75
2023/05/24 11:38:54;;;;;;;7.72;3.60;;;;;;;;;;4964966;28;20074;-76
2023/05/24 11:41:19;;;;;;;6.00;3.22;;;;;;;;;;4974179;28;20476;-75
2023/05/24 11:43:45;;;;;;;3.83;3.50;;;;;;;;;;4969020;28;20051;-75
2023/05/24 11:46:10;;;;;;;4.18;3.55;;;;;;;;;;4976261;28;20117;-75
2023/05/24 11:48:37;;;;;;;4.35;3.78;;;;;;;;;;4975168;28;20037;-74
2023/05/24 11:51:04;;;;;;;3.75;3.45;;;;;;;;;;4973013;28;20031;-76
2023/05/24 11:53:31;;;;;;;3.88;3.50;;;;;;;;;;4976180;28;20022;-75
2023/05/24 11:55:56;;;;;;;4.57;3.47;;;;;;;;;;4974063;28;20463;-74
2023/05/24 11:58:23;;;;;;;3.75;3.45;;;;;;;;;;4974191;28;20030;-76
2023/05/24 12:00:49;;;;;;;5.68;3.60;;;;;;;;;;4972464;28;20122;-76
2023/05/24 12:03:15;;;;;;;3.35;2.92;;;;;;;;;;4974747;28;20345;-76
2023/05/24 12:05:41;;;;;;;5.10;3.03;;;;;;;;;;4972170;28;20023;-76
2023/05/24 12:08:08;;;;;;;6.63;3.75;;;;;;;;;;4973573;28;20022;-75
2023/05/24 12:10:34;;;;;;;4.90;4.03;;;;;;;;;;4972827;28;20040;-75
2023/05/24 12:13:00;;;;;;;4.90;3.05;;;;;;;;;;4975348;28;20445;-75
2023/05/24 12:15:25;;;;;;;6.20;3.58;;;;;;;;;;4973814;28;20026;-75
2023/05/24 12:17:52;;;;;;;5.53;3.38;;;;;;;;;;4973853;28;20030;-76
2023/05/24 12:20:18;;;;;;;5.28;3.28;;;;;;;;;;4975226;28;20122;-75
2023/05/24 12:22:51;;;;;;;3.45;3.15;;;;;;;;;;4973987;28;20057;-76
2023/05/24 12:25:21;;;;;;;5.88;4.13;;;;;;;;;;4973806;28;20112;-75
2023/05/24 12:27:54;;;;;;;4.90;4.05;;;;;;;;;;4972839;28;20326;-76
2023/05/24 12:30:23;;;;;;;5.05;4.00;;;;;;;;;;4975317;28;20057;-77
2023/05/24 12:32:52;;;;;;;4.47;3.75;;;;;;;;;;4973612;28;20610;-76
2023/05/24 12:35:18;;;;;;;4.85;4.20;;;;;;;;;;4972623;28;20030;-76
2023/05/24 12:37:44;;;;;;;7.95;4.18;;;;;;;;;;4961584;28;20038;-75
2023/05/24 12:40:19;;;;;;;5.85;4.20;;;;;;;;;;4970523;28;20496;-75
2023/05/24 12:42:50;;;;;;;4.47;4.07;;;;;;;;;;4975655;28;20054;-75
2023/05/24 12:45:21;;;;;;;5.20;4.10;;;;;;;;;;4972869;28;20073;-75
2023/05/24 12:47:47;;;;;;;7.03;4.70;;;;;;;;;;4973281;28;20023;-75
2023/05/24 12:50:12;;;;;;;5.93;4.55;;;;;;;;;;4971130;28;20053;-75
2023/05/24 12:52:37;;;;;;;5.97;4.82;;;;;;;;;;4964191;28;20047;-75
2023/05/24 12:55:03;;;;;;;6.72;5.00;;;;;;;;;;4971936;28;20117;-75
2023/05/24 12:57:29;;;;;;;6.18;5.10;;;;;;;;;;4972449;28;20023;-75
2023/05/24 12:59:55;;;;;;;6.88;5.07;;;;;;;;;;4968535;28;20035;-74
2023/05/24 13:02:20;;;;;;;5.90;5.35;;;;;;;;;;4955089;28;20101;-76
2023/05/24 13:04:49;;;;;;;7.18;4.78;;;;;;;;;;4956622;28;20130;-76
2023/05/24 13:07:15;;;;;;;;;;;;;;;;;;4960745;28;20022;-74
2023/05/24 13:09:40;;;;;;;6.03;4.87;;;;;;;;;;4965819;28;19918;-76
2023/05/24 13:12:06;;;;;;;4.57;3.88;;;;;;;;;;4972000;28;20354;-76
2023/05/24 13:14:32;;;;;;;6.07;4.60;;;;;;;;;;4966209;28;20030;-74
2023/05/24 13:16:57;;;;;;;4.70;3.90;;;;;;;;;;4958622;28;20030;-75
2023/05/24 13:19:22;;;;;;;4.80;4.40;;;;;;;;;;4965724;28;20039;-78
2023/05/24 13:21:48;;;;;;;6.53;4.95;;;;;;;;;;4973036;28;20107;-77
2023/05/24 13:24:14;;;;;;;4.90;4.40;;;;;;;;;;4972945;28;20030;-75
2023/05/24 13:26:40;;;;;;;4.78;4.32;;;;;;;;;;4976280;28;20037;-74
2023/05/24 13:29:05;;;;;;;7.50;4.50;;;;;;;;;;4977057;28;20039;-77
2023/05/24 13:31:31;;;;;;;5.82;4.10;;;;;;;;;;4974979;28;20035;-75
2023/05/24 13:33:56;;;;;;;5.68;4.30;;;;;;;;;;4975007;28;20065;-78
2023/05/24 13:36:21;;;;;;;5.00;4.55;;;;;;;;;;4968860;28;20054;-75
2023/05/24 13:38:47;;;;;;;6.80;4.18;;;;;;;;;;4968856;28;20424;-76
2023/05/24 13:41:12;;;;;;;4.63;4.18;;;;;;;;;;4973991;28;20062;-76
2023/05/24 13:43:38;;;;;;;5.18;4.68;;;;;;;;;;4974903;28;20053;-75
2023/05/24 13:46:03;;;;;;;8.88;4.72;;;;;;;;;;4976537;28;20376;-75
2023/05/24 13:48:29;;;;;;;5.00;4.40;;;;;;;;;;4967948;28;20054;-76
2023/05/24 13:50:54;;;;;;;4.57;4.18;;;;;;;;;;4949603;28;20023;-76
2023/05/24 13:53:21;;;;;;;6.57;4.10;;;;;;;;;;4953600;28;20137;-75
2023/05/24 13:55:47;;;;;;;5.07;4.50;;;;;;;;;;4952829;28;20023;-76
2023/05/24 13:58:12;;;;;;;5.63;4.30;;;;;;;;;;4952560;28;20037;-75
2023/05/24 14:00:37;;;;;;;8.05;4.78;;;;;;;;;;4952012;28;20066;-73
2023/05/24 14:03:04;;;;;;;5.63;4.75;;;;;;;;;;4960941;28;20037;-75
2023/05/24 14:05:30;;;;;;;6.03;4.72;;;;;;;;;;4961183;28;20099;-76
2023/05/24 14:07:56;;;;;;;6.35;4.70;;;;;;;;;;4973278;28;20026;-75
2023/05/24 14:10:22;;;;;;;5.20;4.80;;;;;;;;;;4966611;28;21019;-75
2023/05/24 14:12:48;;;;;;;7.05;5.13;;;;;;;;;;4968861;28;20031;-75
2023/05/24 14:15:13;;;;;;;9.07;5.43;;;;;;;;;;4965560;28;20040;-73
2023/05/24 14:17:38;;;;;;;4.65;4.25;;;;;;;;;;4965145;28;20018;-74
2023/05/24 14:20:06;;;;;;;4.72;4.32;;;;;;;;;;4964084;28;20061;-74
2023/05/24 14:22:31;;;;;;;4.45;4.05;;;;;;;;;;4967331;28;20092;-74
2023/05/24 14:24:56;;;;;;;6.07;4.00;;;;;;;;;;4976563;28;20018;-75
2023/05/24 14:27:21;;;;;;;4.93;4.50;;;;;;;;;;4976417;28;20038;-74
2023/05/24 14:29:47;;;;;;;6.45;4.75;;;;;;;;;;4977289;28;20027;-75
2023/05/24 14:32:15;;;;;;;4.70;3.60;;;;;;;;;;4967685;28;20027;-74
2023/05/24 14:34:40;;;;;;;4.43;4.03;;;;;;;;;;4970168;28;20038;-74
2023/05/24 14:37:06;;;;;;;8.25;4.30;;;;;;;;;;4974804;28;20263;-75
2023/05/24 14:39:32;;;;;;;9.38;4.35;;;;;;;;;;4976218;28;20038;-74